Time;durP1;ratioP1;P1;durP2;ratioP2;P2;SDS_P1;SDS_P2;PMS_P1;PMS_P2;Temp;Humidity;BMP_temperature;BMP_pressure;BME280_temperature;BME280_humidity;BME280_pressure;Samples;Min_cycle;Max_cycle;Signal;HPM_P1;HPM_P2
2023/06/11 00:01:08;;;;;;;14.20;12.80;;;22.00;99.90;;;;;;5116153;28;20198;-79
2023/06/11 00:03:35;;;;;;;15.40;13.73;;;22.00;99.90;;;;;;5114981;28;20175;-79
2023/06/11 00:06:01;;;;;;;16.80;14.17;;;22.00;99.90;;;;;;5115902;28;20423;-78
2023/06/11 00:08:26;;;;;;;17.13;14.37;;;22.00;99.90;;;;;;5116083;28;20455;-80
2023/06/11 00:10:52;;;;;;;15.30;13.70;;;22.00;99.90;;;;;;5114757;28;20455;-79
2023/06/11 00:13:18;;;;;;;17.30;14.00;;;22.00;99.90;;;;;;5114641;28;20204;-79
2023/06/11 00:15:43;;;;;;;16.00;14.17;;;22.00;99.90;;;;;;5114620;28;20278;-79
2023/06/11 00:18:10;;;;;;;17.40;14.70;;;21.90;99.90;;;;;;5115652;28;20175;-79
2023/06/11 00:20:40;;;;;;;17.00;15.20;;;21.90;99.90;;;;;;5114509;28;20290;-80
2023/06/11 00:23:06;;;;;;;17.23;14.90;;;21.90;99.90;;;;;;5115813;28;20819;-79
2023/06/11 00:25:32;;;;;;;15.37;13.87;;;21.90;99.90;;;;;;5115419;28;20956;-79
2023/06/11 00:27:58;;;;;;;16.17;14.50;;;21.90;99.90;;;;;;5114423;28;20960;-78
2023/06/11 00:30:24;;;;;;;15.53;13.53;;;21.90;99.90;;;;;;5115484;28;20469;-79
2023/06/11 00:32:50;;;;;;;16.07;14.37;;;21.90;99.90;;;;;;5115598;28;20496;-79
2023/06/11 00:35:16;;;;;;;17.77;14.87;;;21.90;99.90;;;;;;5114279;28;20202;-79
2023/06/11 00:37:42;;;;;;;17.00;13.53;;;21.90;99.90;;;;;;5115869;28;20404;-80
2023/06/11 00:40:08;;;;;;;15.43;12.97;;;21.90;99.90;;;;;;5114102;28;20837;-79
2023/06/11 00:42:34;;;;;;;15.57;13.90;;;21.90;99.90;;;;;;5115380;28;20870;-78
2023/06/11 00:45:06;;;;;;;16.30;14.60;;;21.90;99.90;;;;;;5115255;28;20437;-79
2023/06/11 00:47:32;;;;;;;16.90;14.33;;;21.90;99.90;;;;;;5115850;28;20456;-79
2023/06/11 00:49:59;;;;;;;19.47;14.03;;;21.90;99.90;;;;;;5113886;28;20439;-79
2023/06/11 00:52:26;;;;;;;16.23;14.50;;;21.90;99.90;;;;;;5115632;28;20416;-79
2023/06/11 00:54:52;;;;;;;19.83;15.50;;;21.90;99.90;;;;;;5114913;28;20932;-79
2023/06/11 00:57:22;;;;;;;18.33;15.13;;;21.80;99.90;;;;;;5115154;28;20412;-79
2023/06/11 00:59:50;;;;;;;17.17;14.90;;;21.80;99.90;;;;;;5113851;28;20507;-80
2023/06/11 01:03:07;;;;;;;17.23;15.43;;;21.80;99.90;;;;;;5115453;28;20420;-79
2023/06/11 01:05:43;;;;;;;17.73;13.90;;;21.80;99.90;;;;;;5115037;28;21020;-79
2023/06/11 01:08:12;;;;;;;16.90;13.37;;;21.80;99.90;;;;;;5114805;28;20470;-80
2023/06/11 01:10:40;;;;;;;17.27;14.23;;;21.70;99.90;;;;;;5113522;28;20462;-79
2023/06/11 01:13:05;;;;;;;17.77;15.03;;;21.80;99.90;;;;;;5113525;28;20416;-79
2023/06/11 01:15:31;;;;;;;25.40;14.93;;;21.80;99.90;;;;;;5114783;28;20832;-79
2023/06/11 01:18:05;;;;;;;16.50;13.60;;;21.70;99.90;;;;;;5114570;28;20184;-79
2023/06/11 01:20:36;;;;;;;17.97;14.60;;;21.70;99.90;;;;;;5113433;28;20223;-79
2023/06/11 01:23:24;;;;;;;17.87;14.07;;;21.70;99.90;;;;;;5113392;28;20428;-79
2023/06/11 01:26:22;;;;;;;16.37;13.93;;;21.70;99.90;;;;;;5112909;28;20564;-79
2023/06/11 01:28:54;;;;;;;16.80;14.67;;;21.70;99.90;;;;;;5092483;28;20480;-79
2023/06/11 01:31:21;;;;;;;14.93;13.13;;;21.70;99.90;;;;;;5113303;28;20440;-79
2023/06/11 01:33:47;;;;;;;15.40;13.90;;;21.70;99.90;;;;;;5114495;28;20404;-79
2023/06/11 01:36:14;;;;;;;16.40;13.03;;;21.70;99.90;;;;;;5114592;28;20997;-79
2023/06/11 01:38:44;;;;;;;16.80;13.67;;;21.70;99.90;;;;;;5114375;28;20172;-79
2023/06/11 01:41:11;;;;;;;15.03;13.30;;;21.70;99.90;;;;;;5113062;28;20555;-79
2023/06/11 01:43:37;;;;;;;16.20;12.87;;;21.70;99.90;;;;;;5113073;28;20920;-79
2023/06/11 01:46:04;;;;;;;15.07;11.83;;;21.70;99.90;;;;;;5113006;28;20451;-79
2023/06/11 01:48:30;;;;;;;20.50;13.10;;;21.70;99.90;;;;;;5114278;28;20952;-79
2023/06/11 01:50:55;;;;;;;13.67;12.27;;;21.70;99.90;;;;;;5114537;28;20432;-79
2023/06/11 01:53:21;;;;;;;14.57;12.57;;;21.70;99.90;;;;;;5114304;28;20176;-79
2023/06/11 01:55:47;;;;;;;16.30;12.40;;;21.70;99.90;;;;;;5112826;28;20211;-79
2023/06/11 01:58:13;;;;;;;16.53;11.90;;;21.60;99.90;;;;;;5114189;28;20404;-79
2023/06/11 02:00:39;;;;;;;13.90;11.67;;;21.60;99.90;;;;;;5114104;28;20192;-80
2023/06/11 02:03:05;;;;;;;15.90;11.93;;;21.60;99.90;;;;;;5114154;28;20924;-79
2023/06/11 02:05:31;;;;;;;13.90;11.87;;;21.60;99.90;;;;;;5112786;28;20191;-79
2023/06/11 02:07:57;;;;;;;18.40;12.07;;;21.60;99.90;;;;;;5116886;28;20211;-79
2023/06/11 02:10:22;;;;;;;14.87;11.83;;;21.60;99.90;;;;;;5118230;28;20456;-79
2023/06/11 02:12:48;;;;;;;16.33;12.30;;;21.50;99.90;;;;;;5118292;28;20186;-79
2023/06/11 02:15:14;;;;;;;13.83;11.40;;;21.50;99.90;;;;;;5116947;28;20191;-79
2023/06/11 02:17:39;;;;;;;14.03;12.30;;;21.50;99.90;;;;;;5118714;28;20175;-79
2023/06/11 02:20:06;;;;;;;13.97;12.47;;;21.50;99.90;;;;;;5117876;28;20431;-79
2023/06/11 02:22:35;;;;;;;12.23;10.53;;;21.40;99.90;;;;;;5117088;28;20214;-79
2023/06/11 02:25:01;;;;;;;15.03;11.30;;;21.40;99.90;;;;;;5117791;28;20559;-79
2023/06/11 02:27:27;;;;;;;14.03;9.20;;;21.40;99.90;;;;;;5118633;28;20483;-79
2023/06/11 02:29:53;;;;;;;13.80;10.40;;;21.40;99.90;;;;;;5117997;28;20479;-79
2023/06/11 02:32:18;;;;;;;11.63;10.43;;;21.40;99.90;;;;;;5118026;28;20184;-79
2023/06/11 02:34:44;;;;;;;14.50;9.40;;;21.40;99.90;;;;;;5117897;28;20416;-79
2023/06/11 02:37:09;;;;;;;13.67;10.10;;;21.30;99.90;;;;;;5118248;28;20174;-79
2023/06/11 02:39:35;;;;;;;10.43;9.43;;;21.30;99.90;;;;;;5117590;28;20640;-79
2023/06/11 02:42:01;;;;;;;14.03;10.30;;;21.30;99.90;;;;;;5116636;28;20182;-79
2023/06/11 02:44:26;;;;;;;11.80;9.00;;;21.30;99.90;;;;;;5116376;28;20665;-79
2023/06/11 02:46:52;;;;;;;10.67;9.43;;;21.30;99.90;;;;;;5117927;28;20167;-79
2023/06/11 02:49:18;;;;;;;15.10;8.63;;;21.30;99.90;;;;;;5116400;28;20180;-79
2023/06/11 02:51:43;;;;;;;11.87;9.03;;;21.30;99.90;;;;;;5117806;28;20188;-79
2023/06/11 02:54:09;;;;;;;11.93;9.10;;;21.20;99.90;;;;;;5116176;28;20202;-79
2023/06/11 02:56:35;;;;;;;12.00;9.17;;;21.20;99.90;;;;;;5117775;28;20196;-79
2023/06/11 02:59:00;;;;;;;9.37;8.40;;;21.20;99.90;;;;;;5115978;28;20237;-79
2023/06/11 03:01:26;;;;;;;10.80;8.70;;;21.20;99.90;;;;;;5117214;28;20249;-79
2023/06/11 03:03:52;;;;;;;10.10;9.10;;;21.20;99.90;;;;;;5117336;28;20182;-79
2023/06/11 03:06:18;;;;;;;13.77;9.50;;;21.20;99.90;;;;;;5117500;28;20282;-79
2023/06/11 03:08:43;;;;;;;9.20;8.30;;;21.20;99.90;;;;;;5117246;28;20740;-79
2023/06/11 03:11:09;;;;;;;10.93;9.30;;;21.20;99.90;;;;;;5117301;28;20455;-79
2023/06/11 03:13:35;;;;;;;9.50;8.37;;;21.20;99.90;;;;;;5117223;28;20175;-79
2023/06/11 03:16:00;;;;;;;9.77;8.77;;;21.20;99.90;;;;;;5115762;28;20195;-79
2023/06/11 03:18:26;;;;;;;8.60;7.70;;;21.20;99.90;;;;;;5117094;28;20179;-79
2023/06/11 03:20:52;;;;;;;13.23;8.50;;;21.20;99.90;;;;;;5115641;28;20199;-79
2023/06/11 03:23:17;;;;;;;9.83;8.40;;;21.10;99.90;;;;;;5115749;28;20241;-79
2023/06/11 03:25:43;;;;;;;9.10;8.00;;;21.10;99.90;;;;;;5116813;28;20230;-79
2023/06/11 03:28:09;;;;;;;11.00;9.10;;;21.20;99.90;;;;;;5116776;28;20553;-79
2023/06/11 03:30:35;;;;;;;9.83;8.83;;;21.20;99.90;;;;;;5115499;28;20187;-79
2023/06/11 03:33:00;;;;;;;11.13;8.70;;;21.20;99.90;;;;;;5115492;28;20420;-79
2023/06/11 03:35:26;;;;;;;9.23;8.23;;;21.20;99.90;;;;;;5116606;28;20188;-79
2023/06/11 03:37:52;;;;;;;9.33;8.30;;;21.20;99.90;;;;;;5116760;28;20168;-79
2023/06/11 03:40:17;;;;;;;12.73;9.90;;;21.10;99.90;;;;;;5116430;27;20744;-79
2023/06/11 03:42:43;;;;;;;9.70;8.70;;;21.10;99.90;;;;;;5115563;27;20543;-78
2023/06/11 03:45:09;;;;;;;9.83;8.83;;;21.10;99.90;;;;;;5116539;28;20196;-79
2023/06/11 03:47:35;;;;;;;9.10;8.03;;;21.10;99.90;;;;;;5117045;28;20215;-79
2023/06/11 03:50:00;;;;;;;10.67;9.00;;;21.20;99.90;;;;;;5115099;28;20976;-79
2023/06/11 03:52:26;;;;;;;10.43;8.60;;;21.10;99.90;;;;;;5115373;28;20180;-80
2023/06/11 03:54:52;;;;;;;9.53;8.13;;;21.10;99.90;;;;;;5114990;28;20195;-79
2023/06/11 03:57:19;;;;;;;10.63;9.23;;;21.10;99.90;;;;;;5116768;28;20204;-79
2023/06/11 03:59:44;;;;;;;10.73;9.00;;;21.00;99.90;;;;;;5114806;28;20182;-79
2023/06/11 04:02:10;;;;;;;10.30;8.00;;;21.10;99.90;;;;;;5115107;28;20423;-79
2023/06/11 04:04:36;;;;;;;9.43;8.43;;;21.10;99.90;;;;;;5116149;28;20168;-79
2023/06/11 04:07:02;;;;;;;10.47;9.23;;;21.00;99.90;;;;;;5116370;28;20260;-79
2023/06/11 04:09:28;;;;;;;9.43;8.43;;;21.10;99.90;;;;;;5114786;28;20468;-80
2023/06/11 04:11:53;;;;;;;9.13;8.23;;;21.10;99.90;;;;;;5114870;28;20203;-80
2023/06/11 04:14:19;;;;;;;10.93;8.80;;;21.10;99.90;;;;;;5115961;28;20185;-78
2023/06/11 04:16:45;;;;;;;10.10;9.10;;;21.20;99.90;;;;;;5115720;27;20206;-79
2023/06/11 04:19:10;;;;;;;9.30;8.27;;;21.20;99.90;;;;;;5115704;28;20267;-78
2023/06/11 04:21:36;;;;;;;9.90;9.00;;;21.20;99.90;;;;;;5116134;28;20660;-79
2023/06/11 04:24:03;;;;;;;9.43;8.20;;;21.20;99.90;;;;;;5114531;28;20182;-79
2023/06/11 04:26:31;;;;;;;10.47;9.17;;;21.30;99.90;;;;;;5115700;28;20455;-79
2023/06/11 04:28:57;;;;;;;14.63;9.40;;;21.30;99.90;;;;;;5115470;28;20992;-79
2023/06/11 04:31:26;;;;;;;10.20;9.20;;;21.30;99.90;;;;;;5115312;28;20480;-79
2023/06/11 04:33:55;;;;;;;11.27;9.30;;;21.40;99.90;;;;;;5114293;28;20183;-79
2023/06/11 04:36:24;;;;;;;11.60;9.40;;;21.40;99.90;;;;;;5115434;28;20428;-79
2023/06/11 04:38:51;;;;;;;10.67;9.57;;;21.40;99.90;;;;;;5114141;28;20419;-79
2023/06/11 04:41:17;;;;;;;10.43;9.43;;;21.40;99.90;;;;;;5115436;28;20517;-80
2023/06/11 04:43:45;;;;;;;10.63;8.47;;;21.40;99.90;;;;;;5114077;28;20456;-79
2023/06/11 04:46:11;;;;;;;11.50;9.50;;;21.40;99.90;;;;;;5115452;28;20975;-80
2023/06/11 04:48:37;;;;;;;10.07;9.07;;;21.40;99.90;;;;;;5115170;28;20553;-79
2023/06/11 04:51:04;;;;;;;12.70;9.17;;;21.40;99.90;;;;;;5113890;28;20459;-79
2023/06/11 04:53:31;;;;;;;9.17;8.27;;;21.40;99.90;;;;;;5115213;28;20412;-79
2023/06/11 04:55:58;;;;;;;10.07;9.10;;;21.40;99.90;;;;;;5115200;28;20473;-79
2023/06/11 04:58:25;;;;;;;11.73;8.63;;;21.40;99.90;;;;;;5113850;28;20428;-78
2023/06/11 05:00:51;;;;;;;9.97;8.10;;;21.50;99.90;;;;;;5114931;27;20519;-79
2023/06/11 05:03:18;;;;;;;9.53;8.63;;;21.50;99.90;;;;;;5115067;28;20916;-79
2023/06/11 05:05:49;;;;;;;12.23;9.07;;;21.50;99.90;;;;;;5114862;28;20439;-79
2023/06/11 05:08:20;;;;;;;10.00;8.97;;;21.50;99.90;;;;;;5113678;28;20490;-79
2023/06/11 05:10:46;;;;;;;10.90;9.47;;;21.50;99.90;;;;;;5114866;28;20546;-79
2023/06/11 05:13:12;;;;;;;9.67;8.67;;;21.50;99.90;;;;;;5113530;28;20499;-79
2023/06/11 05:15:38;;;;;;;9.97;8.97;;;21.60;99.90;;;;;;5114806;28;20834;-80
2023/06/11 05:18:04;;;;;;;9.00;7.60;;;21.60;99.90;;;;;;5113484;28;20409;-79
2023/06/11 05:20:29;;;;;;;9.73;8.73;;;21.70;99.90;;;;;;5114500;28;20928;-79
2023/06/11 05:22:59;;;;;;;10.10;8.67;;;21.70;99.90;;;;;;5114962;28;20515;-79
2023/06/11 05:25:28;;;;;;;9.27;8.37;;;21.70;99.90;;;;;;5114379;28;20222;-79
2023/06/11 05:27:57;;;;;;;10.50;9.27;;;21.70;99.90;;;;;;5114602;28;20471;-79
2023/06/11 05:30:25;;;;;;;10.40;8.47;;;21.80;99.90;;;;;;5114521;28;20447;-79
2023/06/11 05:32:51;;;;;;;11.60;8.90;;;21.80;99.90;;;;;;5114534;28;20412;-79
2023/06/11 05:35:17;;;;;;;9.90;9.00;;;21.90;99.90;;;;;;5113153;28;20444;-79
2023/06/11 05:37:43;;;;;;;8.60;7.80;;;21.90;99.90;;;;;;5115023;28;20495;-80
2023/06/11 05:40:11;;;;;;;9.07;7.93;;;22.00;99.90;;;;;;5114121;28;20207;-79
2023/06/11 05:42:36;;;;;;;8.97;8.07;;;22.00;99.90;;;;;;5114102;28;20415;-80
2023/06/11 05:45:03;;;;;;;8.83;7.93;;;22.10;99.90;;;;;;5114292;28;20440;-79
2023/06/11 05:47:28;;;;;;;8.30;7.60;;;22.10;99.90;;;;;;5114659;28;20212;-79
2023/06/11 05:49:56;;;;;;;11.97;7.57;;;22.20;99.90;;;;;;5114192;28;20854;-80
2023/06/11 05:52:22;;;;;;;8.73;7.93;;;22.30;99.90;;;;;;5114681;28;20187;-79
2023/06/11 05:54:48;;;;;;;10.13;8.33;;;22.30;99.90;;;;;;5114097;28;20440;-79
2023/06/11 05:57:21;;;;;;;10.60;8.30;;;22.30;99.90;;;;;;5114583;28;20823;-79
2023/06/11 05:59:47;;;;;;;9.07;8.17;;;22.40;99.90;;;;;;5113964;28;20179;-78
2023/06/11 06:02:13;;;;;;;12.60;8.33;;;22.40;99.90;;;;;;5114611;28;20520;-79
2023/06/11 06:04:39;;;;;;;9.03;8.07;;;22.50;99.90;;;;;;5114133;28;20188;-79
2023/06/11 06:07:04;;;;;;;8.40;7.60;;;22.50;99.90;;;;;;5112898;28;20171;-79
2023/06/11 06:09:32;;;;;;;9.00;8.13;;;22.60;99.90;;;;;;5114146;28;20678;-79
2023/06/11 06:11:57;;;;;;;11.40;9.50;;;22.60;99.90;;;;;;5114392;28;20172;-79
2023/06/11 06:14:23;;;;;;;8.90;7.60;;;22.70;99.90;;;;;;5112841;28;20421;-78
2023/06/11 06:16:48;;;;;;;8.83;8.03;;;22.70;99.90;;;;;;5114267;28;20192;-79
2023/06/11 06:19:14;;;;;;;8.13;7.30;;;22.80;99.90;;;;;;5114144;28;20171;-79
2023/06/11 06:21:40;;;;;;;8.70;7.63;;;22.80;99.90;;;;;;5114009;28;20229;-79
2023/06/11 06:24:06;;;;;;;8.77;7.07;;;22.80;99.90;;;;;;5113943;28;20188;-78
2023/06/11 06:26:32;;;;;;;9.60;8.60;;;22.90;99.90;;;;;;5114001;28;20228;-79
2023/06/11 06:28:57;;;;;;;8.50;7.60;;;22.90;99.90;;;;;;5113815;28;20204;-78
2023/06/11 06:31:24;;;;;;;8.80;8.00;;;22.90;99.90;;;;;;5113989;28;20455;-79
2023/06/11 06:33:51;;;;;;;9.00;8.10;;;23.00;99.90;;;;;;5113872;28;20204;-79
2023/06/11 06:36:19;;;;;;;8.77;8.00;;;23.00;99.90;;;;;;5112573;28;20447;-79
2023/06/11 06:38:46;;;;;;;9.10;8.20;;;23.10;99.90;;;;;;5113952;28;20463;-79
2023/06/11 06:41:11;;;;;;;10.37;8.03;;;23.10;99.90;;;;;;5113750;28;20825;-79
2023/06/11 06:43:37;;;;;;;8.57;7.73;;;23.20;99.90;;;;;;5113792;28;20401;-79
2023/06/11 06:46:03;;;;;;;8.27;7.47;;;23.20;99.90;;;;;;5112598;28;20255;-79
2023/06/11 06:48:29;;;;;;;8.73;7.83;;;23.30;99.90;;;;;;5113718;28;20458;-79
2023/06/11 06:50:54;;;;;;;8.83;7.93;;;23.30;99.90;;;;;;5113617;28;20199;-79
2023/06/11 06:53:20;;;;;;;12.53;8.07;;;23.40;99.90;;;;;;5115303;28;20225;-79
2023/06/11 06:55:47;;;;;;;9.27;8.40;;;23.50;99.90;;;;;;5116253;28;20209;-79
2023/06/11 06:58:13;;;;;;;9.23;7.27;;;23.60;99.90;;;;;;5117468;28;20224;-79
2023/06/11 07:00:38;;;;;;;7.63;6.57;;;23.60;99.90;;;;;;5117182;28;20789;-80
2023/06/11 07:03:04;;;;;;;7.77;7.00;;;23.70;99.90;;;;;;5116093;28;20697;-80
2023/06/11 07:05:30;;;;;;;8.30;7.50;;;23.80;99.90;;;;;;5116058;28;20188;-80
2023/06/11 07:07:56;;;;;;;8.00;6.70;;;23.80;99.90;;;;;;5117256;28;20481;-80
2023/06/11 07:10:22;;;;;;;8.80;7.63;;;23.90;99.90;;;;;;5115852;28;20562;-79
2023/06/11 07:12:48;;;;;;;9.43;7.30;;;24.00;99.90;;;;;;5117304;28;20185;-78
2023/06/11 07:15:13;;;;;;;7.93;7.23;;;24.10;99.90;;;;;;5115887;28;20199;-79
2023/06/11 07:17:39;;;;;;;10.07;7.60;;;24.10;99.90;;;;;;5117738;28;20772;-79
2023/06/11 07:20:07;;;;;;;8.13;7.37;;;24.10;99.90;;;;;;5116867;28;20241;-79
2023/06/11 07:22:33;;;;;;;8.83;7.50;;;24.10;99.90;;;;;;5117554;28;20261;-79
2023/06/11 07:25:00;;;;;;;16.13;7.93;;;24.20;99.90;;;;;;5115499;28;20513;-79
2023/06/11 07:27:26;;;;;;;8.60;7.80;;;24.20;99.90;;;;;;5117389;28;20466;-79
2023/06/11 07:29:52;;;;;;;8.77;7.87;;;24.20;99.90;;;;;;5116865;28;20870;-80
2023/06/11 07:32:18;;;;;;;9.43;8.43;;;24.20;99.90;;;;;;5117270;28;20449;-79
2023/06/11 07:34:43;;;;;;;9.33;8.10;;;24.30;99.90;;;;;;5116801;28;20225;-80
2023/06/11 07:37:09;;;;;;;8.00;7.27;;;24.30;99.90;;;;;;5117198;27;20628;-79
2023/06/11 07:39:35;;;;;;;8.87;7.90;;;24.40;99.90;;;;;;5115412;28;20271;-79
2023/06/11 07:42:01;;;;;;;9.40;7.97;;;24.40;99.90;;;;;;5116350;28;20666;-79
2023/06/11 07:44:27;;;;;;;8.57;7.87;;;24.50;99.90;;;;;;5116689;28;20175;-79
2023/06/11 07:46:52;;;;;;;7.67;6.97;;;24.50;99.90;;;;;;5115487;28;20427;-79
2023/06/11 07:49:18;;;;;;;8.50;7.73;;;24.60;99.90;;;;;;5116398;28;20223;-79
2023/06/11 07:51:46;;;;;;;8.80;8.00;;;24.60;99.90;;;;;;5116709;28;20659;-79
2023/06/11 07:54:11;;;;;;;9.03;8.10;;;24.70;99.90;;;;;;5116408;28;20183;-79
2023/06/11 07:56:37;;;;;;;8.50;7.67;;;24.70;99.90;;;;;;5116604;28;20535;-80
2023/06/11 07:59:03;;;;;;;9.10;8.13;;;24.80;99.90;;;;;;5115084;28;20649;-79
2023/06/11 08:01:29;;;;;;;9.20;8.30;;;24.80;99.90;;;;;;5114681;28;20526;-79
2023/06/11 08:03:55;;;;;;;8.77;7.20;;;24.90;99.90;;;;;;5115847;28;20176;-79
2023/06/11 08:06:20;;;;;;;7.50;6.90;;;25.00;99.90;;;;;;5115688;28;20481;-79
2023/06/11 08:08:47;;;;;;;8.73;7.93;;;25.10;99.90;;;;;;5116136;28;20214;-79
2023/06/11 08:11:13;;;;;;;9.20;8.40;;;25.20;99.90;;;;;;5114898;28;20199;-80
2023/06/11 08:13:40;;;;;;;8.50;7.70;;;25.20;99.90;;;;;;5114813;28;20415;-79
2023/06/11 08:16:09;;;;;;;8.90;7.43;;;25.30;99.90;;;;;;5115768;28;20428;-79
2023/06/11 08:18:34;;;;;;;12.10;8.03;;;25.30;99.90;;;;;;5115952;28;20432;-79
2023/06/11 08:21:00;;;;;;;9.30;7.33;;;25.40;99.90;;;;;;5115612;28;20471;-79
2023/06/11 08:23:26;;;;;;;9.27;7.77;;;25.40;99.90;;;;;;5114540;28;20184;-78
2023/06/11 08:25:52;;;;;;;7.53;6.83;;;25.50;99.90;;;;;;5115555;28;20566;-79
2023/06/11 08:28:19;;;;;;;8.63;6.90;;;25.50;99.90;;;;;;5115692;28;20460;-78
2023/06/11 08:30:45;;;;;;;8.83;7.90;;;25.60;99.90;;;;;;5114361;28;20199;-79
2023/06/11 08:33:11;;;;;;;7.60;7.00;;;25.70;99.90;;;;;;5115600;28;20549;-78
2023/06/11 08:35:37;;;;;;;8.40;7.43;;;25.70;99.90;;;;;;5114226;28;20736;-79
2023/06/11 08:38:02;;;;;;;7.33;6.70;;;25.70;99.90;;;;;;5115466;28;20498;-79
2023/06/11 08:40:29;;;;;;;6.70;6.13;;;25.70;99.90;;;;;;5114014;28;20192;-79
2023/06/11 08:42:55;;;;;;;7.30;6.70;;;25.80;99.90;;;;;;5114061;28;20176;-79
2023/06/11 08:45:20;;;;;;;12.70;7.07;;;25.80;99.90;;;;;;5115128;28;20436;-79
2023/06/11 08:47:51;;;;;;;7.67;6.80;;;25.90;99.90;;;;;;5115289;28;20273;-78
2023/06/11 08:50:21;;;;;;;7.93;7.23;;;25.90;99.90;;;;;;5115419;28;20232;-79
2023/06/11 08:52:50;;;;;;;10.20;7.17;;;25.90;99.90;;;;;;5113981;28;20456;-79
2023/06/11 08:55:16;;;;;;;8.17;6.60;;;26.00;99.90;;;;;;5113951;28;20463;-79
2023/06/11 08:57:43;;;;;;;7.80;7.17;;;26.00;99.90;;;;;;5115114;28;20443;-79
2023/06/11 09:00:12;;;;;;;7.97;7.27;;;26.10;99.90;;;;;;5115055;28;20196;-78
2023/06/11 09:02:38;;;;;;;7.70;7.10;;;26.10;99.90;;;;;;5115454;28;20827;-79
2023/06/11 09:05:04;;;;;;;7.30;6.70;;;26.10;99.90;;;;;;5113663;28;20435;-79
2023/06/11 09:07:30;;;;;;;7.27;6.60;;;26.10;99.90;;;;;;5113904;28;20456;-80
2023/06/11 09:10:10;;;;;;;7.70;7.07;;;26.20;99.90;;;;;;5113569;28;20226;-79
2023/06/11 09:12:36;;;;;;;7.83;7.13;;;26.20;99.90;;;;;;5113904;28;20484;-79
2023/06/11 09:15:04;;;;;;;8.40;7.70;;;26.30;99.90;;;;;;5113506;28;20440;-79
2023/06/11 09:17:35;;;;;;;9.87;7.27;;;26.30;99.90;;;;;;5113731;28;20507;-79
2023/06/11 09:20:04;;;;;;;8.53;7.60;;;26.30;99.90;;;;;;5114727;27;20456;-80
2023/06/11 09:22:30;;;;;;;9.20;8.37;;;26.40;99.90;;;;;;5114986;28;20892;-80
2023/06/11 09:24:56;;;;;;;11.63;7.33;;;26.40;99.90;;;;;;5113060;28;20483;-79
2023/06/11 09:27:22;;;;;;;8.27;7.47;;;26.40;99.90;;;;;;5114544;28;20840;-78
2023/06/11 09:29:48;;;;;;;8.97;7.37;;;26.30;99.90;;;;;;5114862;28;20221;-79
2023/06/11 09:32:14;;;;;;;9.77;7.90;;;26.40;99.90;;;;;;5113512;28;20432;-79
2023/06/11 09:34:40;;;;;;;7.83;7.20;;;26.40;99.90;;;;;;5114477;28;20447;-79
2023/06/11 09:37:09;;;;;;;8.40;7.50;;;26.40;99.90;;;;;;5113518;28;20505;-79
2023/06/11 09:39:35;;;;;;;8.30;7.50;;;26.40;99.90;;;;;;5113213;28;20406;-79
2023/06/11 09:42:01;;;;;;;8.07;7.30;;;26.40;99.90;;;;;;5113896;28;20424;-79
2023/06/11 09:44:30;;;;;;;9.77;8.40;;;26.40;99.90;;;;;;5097851;28;20180;-79
2023/06/11 09:46:57;;;;;;;8.63;7.83;;;26.50;99.90;;;;;;5091860;28;20209;-79
2023/06/11 09:49:24;;;;;;;7.70;7.10;;;26.50;99.90;;;;;;5091956;28;20460;-80
2023/06/11 09:51:52;;;;;;;7.17;6.57;;;26.50;99.90;;;;;;5092750;28;20447;-79
2023/06/11 09:54:19;;;;;;;8.87;7.47;;;26.50;99.90;;;;;;5092606;28;20405;-79
2023/06/11 09:56:47;;;;;;;6.80;6.10;;;26.60;99.90;;;;;;5092328;28;20502;-79
2023/06/11 09:59:16;;;;;;;7.80;7.10;;;26.60;99.90;;;;;;5093874;28;20416;-79
2023/06/11 10:01:47;;;;;;;8.33;7.53;;;26.70;99.90;;;;;;5091189;28;20437;-79
2023/06/11 10:04:12;;;;;;;8.67;7.87;;;26.80;99.90;;;;;;5091077;28;20393;-79
2023/06/11 10:06:45;;;;;;;8.60;7.70;;;26.80;99.90;;;;;;5089222;28;20451;-79
2023/06/11 10:09:13;;;;;;;8.37;7.53;;;26.80;99.90;;;;;;5091401;28;20713;-79
2023/06/11 10:11:40;;;;;;;7.93;7.13;;;26.70;99.90;;;;;;5090360;28;20864;-79
2023/06/11 10:14:11;;;;;;;7.93;7.30;;;26.70;99.90;;;;;;5091884;28;20408;-79
2023/06/11 10:16:37;;;;;;;8.97;7.37;;;26.70;99.90;;;;;;5097086;28;20520;-79
2023/06/11 10:19:08;;;;;;;7.70;7.00;;;26.70;99.90;;;;;;5102583;28;20408;-79
2023/06/11 10:21:44;;;;;;;13.03;7.83;;;26.70;99.90;;;;;;5114006;28;20432;-79
2023/06/11 10:24:27;;;;;;;8.50;7.60;;;26.70;99.90;;;;;;5109095;28;20431;-79
2023/06/11 10:27:13;;;;;;;7.20;6.53;;;26.70;99.90;;;;;;5112127;28;20492;-79
2023/06/11 10:29:48;;;;;;;6.70;6.20;;;26.70;99.90;;;;;;5114512;28;21002;-79
2023/06/11 10:32:22;;;;;;;8.23;7.47;;;26.70;99.90;;;;;;5116240;28;20411;-79
2023/06/11 10:34:54;;;;;;;7.80;7.17;;;26.70;99.90;;;;;;5116035;28;20423;-79
2023/06/11 10:37:36;;;;;;;9.07;7.30;;;26.70;99.90;;;;;;5116249;28;20477;-79
2023/06/11 10:40:03;;;;;;;9.03;7.57;;;26.70;99.90;;;;;;5115661;28;20427;-79
2023/06/11 10:42:38;;;;;;;8.33;7.57;;;26.70;99.90;;;;;;5114312;28;20424;-79
2023/06/11 10:45:11;;;;;;;8.70;7.90;;;26.70;99.90;;;;;;5115566;28;20431;-79
2023/06/11 10:47:45;;;;;;;8.07;7.27;;;26.80;99.90;;;;;;5116079;28;20992;-79
2023/06/11 10:50:13;;;;;;;8.03;7.23;;;26.70;99.90;;;;;;5114161;28;20431;-79
2023/06/11 10:52:51;;;;;;;7.73;6.90;;;26.80;99.90;;;;;;5115944;28;20448;-79
2023/06/11 10:55:22;;;;;;;7.77;6.70;;;26.80;99.90;;;;;;5117710;28;20444;-79
2023/06/11 10:57:55;;;;;;;8.40;6.50;;;26.80;99.90;;;;;;5117574;27;20432;-79
2023/06/11 11:00:22;;;;;;;7.93;7.00;;;26.90;99.90;;;;;;5116095;28;20489;-78
2023/06/11 11:02:48;;;;;;;7.70;7.10;;;26.90;99.90;;;;;;5116000;28;20461;-79
2023/06/11 11:05:14;;;;;;;8.20;7.40;;;27.00;99.90;;;;;;5117286;28;20932;-79
2023/06/11 11:07:44;;;;;;;9.57;6.70;;;27.00;99.90;;;;;;5116259;28;20456;-79
2023/06/11 11:10:11;;;;;;;7.93;7.13;;;27.00;99.90;;;;;;5115847;28;20546;-79
2023/06/11 11:12:41;;;;;;;7.97;6.80;;;27.00;99.90;;;;;;5117243;28;20400;-79
2023/06/11 11:15:07;;;;;;;6.73;6.07;;;27.00;99.90;;;;;;5115709;28;20553;-79
2023/06/11 11:17:34;;;;;;;10.30;6.00;;;27.00;99.90;;;;;;5116187;28;20921;-79
2023/06/11 11:20:00;;;;;;;6.67;6.07;;;27.00;99.90;;;;;;5115753;28;20436;-79
2023/06/11 11:22:27;;;;;;;7.00;6.50;;;27.00;99.90;;;;;;5115888;28;20415;-78
2023/06/11 11:24:53;;;;;;;8.10;7.30;;;27.10;99.90;;;;;;5115428;28;20471;-80
2023/06/11 11:27:22;;;;;;;8.00;7.20;;;27.10;99.90;;;;;;5115785;28;20420;-79
2023/06/11 11:29:48;;;;;;;7.93;7.13;;;27.20;99.90;;;;;;5115614;28;20440;-78
2023/06/11 11:32:14;;;;;;;7.20;6.60;;;27.20;99.90;;;;;;5116914;28;20961;-79
2023/06/11 11:34:40;;;;;;;7.97;7.10;;;27.20;99.90;;;;;;5115536;28;20591;-79
2023/06/11 11:37:06;;;;;;;7.40;6.70;;;27.30;99.90;;;;;;5117175;28;20412;-79
2023/06/11 11:39:32;;;;;;;7.33;6.60;;;27.30;99.90;;;;;;5115389;28;20495;-79
2023/06/11 11:41:59;;;;;;;7.00;6.40;;;27.30;99.90;;;;;;5116856;28;20443;-79
2023/06/11 11:44:25;;;;;;;8.07;6.50;;;27.40;99.90;;;;;;5115424;28;20176;-79
2023/06/11 11:46:58;;;;;;;7.10;6.50;;;27.40;99.90;;;;;;5116856;28;20962;-79
2023/06/11 11:49:33;;;;;;;7.07;6.37;;;27.40;99.90;;;;;;5116513;28;20702;-79
2023/06/11 11:52:00;;;;;;;7.80;7.10;;;27.30;99.90;;;;;;5116834;28;20469;-79
2023/06/11 11:54:26;;;;;;;7.10;6.50;;;27.30;99.90;;;;;;5116488;28;20412;-78
2023/06/11 11:57:08;;;;;;;7.20;6.60;;;27.30;99.90;;;;;;5115192;28;20761;-79
2023/06/11 11:59:37;;;;;;;7.30;6.40;;;27.30;99.90;;;;;;5116432;28;20409;-78
2023/06/11 12:02:03;;;;;;;12.53;6.70;;;27.30;99.90;;;;;;5116577;28;20413;-80
2023/06/11 12:04:36;;;;;;;7.63;6.93;;;27.40;99.90;;;;;;5114776;28;20935;-79
2023/06/11 12:07:12;;;;;;;7.50;6.90;;;27.30;99.90;;;;;;5115056;28;20417;-79
2023/06/11 12:09:39;;;;;;;7.60;6.90;;;27.30;99.90;;;;;;5116201;28;20472;-80
2023/06/11 12:12:07;;;;;;;9.07;7.77;;;27.30;99.90;;;;;;5114968;28;20444;-79
2023/06/11 12:14:36;;;;;;;8.10;7.30;;;27.30;99.90;;;;;;5116018;28;20762;-79
2023/06/11 12:17:02;;;;;;;7.87;6.93;;;27.30;99.90;;;;;;5114816;28;20432;-79
2023/06/11 12:19:32;;;;;;;8.30;7.60;;;27.30;99.90;;;;;;5115864;28;20409;-79
2023/06/11 12:21:58;;;;;;;7.90;7.20;;;27.30;99.90;;;;;;5116311;28;20412;-79
2023/06/11 12:24:24;;;;;;;7.93;7.23;;;27.30;99.90;;;;;;5114224;28;20433;-79
2023/06/11 12:26:51;;;;;;;7.00;6.40;;;27.30;99.90;;;;;;5112970;28;20211;-79
2023/06/11 12:29:17;;;;;;;7.13;6.43;;;27.40;99.90;;;;;;5094413;28;20299;-79
2023/06/11 12:31:45;;;;;;;6.67;6.07;;;27.40;99.90;;;;;;5093571;28;20526;-79
2023/06/11 12:34:15;;;;;;;7.97;7.27;;;27.40;99.90;;;;;;5092667;28;20415;-79
2023/06/11 12:36:42;;;;;;;8.40;7.40;;;27.40;99.90;;;;;;5094684;28;20488;-80
2023/06/11 12:39:08;;;;;;;9.67;7.50;;;27.40;99.90;;;;;;5110887;28;20561;-80
2023/06/11 12:41:34;;;;;;;8.37;7.57;;;27.40;99.90;;;;;;5094133;28;20465;-79